sensor_id;sensor_type;location;lat;lon;timestamp;temperature;humidity
19017;DHT22;9641;51.494;6.670;2022-11-20T00:00:38;-1.70;99.90
19017;DHT22;9641;51.494;6.670;2022-11-20T00:03:05;-1.70;99.90
19017;DHT22;9641;51.494;6.670;2022-11-20T00:05:33;-1.70;99.90
19017;DHT22;9641;51.494;6.670;2022-11-20T00:08:00;-1.70;99.90
19017;DHT22;9641;51.494;6.670;2022-11-20T00:10:27;-1.70;99.90
19017;DHT22;9641;51.494;6.670;2022-11-20T00:12:53;-1.70;99.90
19017;DHT22;9641;51.494;6.670;2022-11-20T00:15:20;-1.80;99.90
19017;DHT22;9641;51.494;6.670;2022-11-20T00:17:47;-1.90;99.90
19017;DHT22;9641;51.494;6.670;2022-11-20T00:20:14;-1.90;99.90
19017;DHT22;9641;51.494;6.670;2022-11-20T00:22:42;-1.90;99.90
19017;DHT22;9641;51.494;6.670;2022-11-20T00:25:09;-1.90;99.90
19017;DHT22;9641;51.494;6.670;2022-11-20T00:27:36;-1.90;99.90
19017;DHT22;9641;51.494;6.670;2022-11-20T00:30:06;-2.00;99.90
19017;DHT22;9641;51.494;6.670;2022-11-20T00:32:33;-2.00;99.90
19017;DHT22;9641;51.494;6.670;2022-11-20T00:35:00;-2.10;99.90
19017;DHT22;9641;51.494;6.670;2022-11-20T00:37:27;-2.10;99.90
19017;DHT22;9641;51.494;6.670;2022-11-20T00:39:55;-2.20;99.90
19017;DHT22;9641;51.494;6.670;2022-11-20T00:42:22;-2.20;99.90
19017;DHT22;9641;51.494;6.670;2022-11-20T00:44:48;-2.20;99.90
19017;DHT22;9641;51.494;6.670;2022-11-20T00:47:15;-2.20;99.90
19017;DHT22;9641;51.494;6.670;2022-11-20T00:49:42;-2.20;99.90
19017;DHT22;9641;51.494;6.670;2022-11-20T00:52:09;-2.30;99.90
19017;DHT22;9641;51.494;6.670;2022-11-20T00:54:36;-2.30;99.90
19017;DHT22;9641;51.494;6.670;2022-11-20T00:57:04;-2.30;99.90
19017;DHT22;9641;51.494;6.670;2022-11-20T00:59:31;-2.20;99.90
19017;DHT22;9641;51.494;6.670;2022-11-20T01:01:57;-2.20;99.90
19017;DHT22;9641;51.494;6.670;2022-11-20T01:04:24;-2.10;99.90
19017;DHT22;9641;51.494;6.670;2022-11-20T01:06:51;-2.10;99.90
19017;DHT22;9641;51.494;6.670;2022-11-20T01:09:17;-2.10;99.90
19017;DHT22;9641;51.494;6.670;2022-11-20T01:11:44;-2.00;99.90
19017;DHT22;9641;51.494;6.670;2022-11-20T01:14:14;-2.10;99.90
19017;DHT22;9641;51.494;6.670;2022-11-20T01:16:43;-2.10;99.90
19017;DHT22;9641;51.494;6.670;2022-11-20T01:19:12;-2.10;99.90
19017;DHT22;9641;51.494;6.670;2022-11-20T01:21:41;-2.10;99.90
19017;DHT22;9641;51.494;6.670;2022-11-20T01:24:11;-2.10;99.90
19017;DHT22;9641;51.494;6.670;2022-11-20T01:26:39;-2.00;99.90
19017;DHT22;9641;51.494;6.670;2022-11-20T01:29:07;-2.00;99.90
19017;DHT22;9641;51.494;6.670;2022-11-20T01:31:37;-2.10;99.90
19017;DHT22;9641;51.494;6.670;2022-11-20T01:34:05;-2.10;99.90
19017;DHT22;9641;51.494;6.670;2022-11-20T01:36:33;-2.20;99.90
19017;DHT22;9641;51.494;6.670;2022-11-20T01:39:04;-2.20;99.90
19017;DHT22;9641;51.494;6.670;2022-11-20T01:41:32;-2.20;99.90
19017;DHT22;9641;51.494;6.670;2022-11-20T01:44:19;-2.20;99.90
19017;DHT22;9641;51.494;6.670;2022-11-20T01:46:54;-2.10;99.90
19017;DHT22;9641;51.494;6.670;2022-11-20T01:49:24;-2.10;99.90
19017;DHT22;9641;51.494;6.670;2022-11-20T01:51:55;-2.10;99.90
19017;DHT22;9641;51.494;6.670;2022-11-20T01:54:25;-2.20;99.90
19017;DHT22;9641;51.494;6.670;2022-11-20T01:56:56;-2.20;99.90
19017;DHT22;9641;51.494;6.670;2022-11-20T01:59:24;-2.30;99.90
19017;DHT22;9641;51.494;6.670;2022-11-20T02:01:54;-2.30;99.90
19017;DHT22;9641;51.494;6.670;2022-11-20T02:04:22;-2.30;99.90
19017;DHT22;9641;51.494;6.670;2022-11-20T02:06:51;-2.20;99.90
19017;DHT22;9641;51.494;6.670;2022-11-20T02:09:20;-2.20;99.90
19017;DHT22;9641;51.494;6.670;2022-11-20T02:11:47;-2.20;99.90
19017;DHT22;9641;51.494;6.670;2022-11-20T02:14:14;-2.10;99.90
19017;DHT22;9641;51.494;6.670;2022-11-20T02:16:44;-2.10;99.90
19017;DHT22;9641;51.494;6.670;2022-11-20T02:19:19;-2.00;99.90
19017;DHT22;9641;51.494;6.670;2022-11-20T02:21:54;-1.90;99.90
19017;DHT22;9641;51.494;6.670;2022-11-20T02:24:24;-1.80;99.90
19017;DHT22;9641;51.494;6.670;2022-11-20T02:26:53;-1.70;99.90
19017;DHT22;9641;51.494;6.670;2022-11-20T02:29:25;-1.60;99.90
19017;DHT22;9641;51.494;6.670;2022-11-20T02:31:54;-1.40;99.90
19017;DHT22;9641;51.494;6.670;2022-11-20T02:34:21;-1.50;99.90
19017;DHT22;9641;51.494;6.670;2022-11-20T02:36:50;-1.50;99.90
19017;DHT22;9641;51.494;6.670;2022-11-20T02:39:19;-1.40;99.90
19017;DHT22;9641;51.494;6.670;2022-11-20T02:41:48;-1.20;99.90
19017;DHT22;9641;51.494;6.670;2022-11-20T02:44:15;-1.20;99.90
19017;DHT22;9641;51.494;6.670;2022-11-20T02:46:42;-1.10;99.90
19017;DHT22;9641;51.494;6.670;2022-11-20T02:49:08;-1.00;99.90
19017;DHT22;9641;51.494;6.670;2022-11-20T02:51:35;-0.90;99.90
19017;DHT22;9641;51.494;6.670;2022-11-20T02:54:02;-0.90;99.90
19017;DHT22;9641;51.494;6.670;2022-11-20T02:56:30;-0.90;99.90
19017;DHT22;9641;51.494;6.670;2022-11-20T02:58:58;-0.90;99.90
19017;DHT22;9641;51.494;6.670;2022-11-20T03:01:25;-0.80;99.90
19017;DHT22;9641;51.494;6.670;2022-11-20T03:03:51;-0.70;99.90
19017;DHT22;9641;51.494;6.670;2022-11-20T03:06:19;-0.70;99.90
19017;DHT22;9641;51.494;6.670;2022-11-20T03:08:46;-0.60;99.90
19017;DHT22;9641;51.494;6.670;2022-11-20T03:11:13;-0.70;99.90
19017;DHT22;9641;51.494;6.670;2022-11-20T03:13:40;-0.60;99.90
19017;DHT22;9641;51.494;6.670;2022-11-20T03:16:13;-0.60;99.90
19017;DHT22;9641;51.494;6.670;2022-11-20T03:18:41;-0.60;99.90
19017;DHT22;9641;51.494;6.670;2022-11-20T03:21:09;-0.60;99.90
19017;DHT22;9641;51.494;6.670;2022-11-20T03:23:36;-0.60;99.90
19017;DHT22;9641;51.494;6.670;2022-11-20T03:26:10;-0.50;99.90
19017;DHT22;9641;51.494;6.670;2022-11-20T03:28:37;-0.50;99.90
19017;DHT22;9641;51.494;6.670;2022-11-20T03:31:09;-0.50;99.90
19017;DHT22;9641;51.494;6.670;2022-11-20T03:33:37;-0.50;99.90
19017;DHT22;9641;51.494;6.670;2022-11-20T03:36:06;-0.50;99.90
19017;DHT22;9641;51.494;6.670;2022-11-20T03:38:33;-0.60;99.90
19017;DHT22;9641;51.494;6.670;2022-11-20T03:41:00;-0.60;99.90
19017;DHT22;9641;51.494;6.670;2022-11-20T03:43:27;-0.50;99.90
19017;DHT22;9641;51.494;6.670;2022-11-20T03:45:54;-0.50;99.90
19017;DHT22;9641;51.494;6.670;2022-11-20T03:48:22;-0.50;99.90
19017;DHT22;9641;51.494;6.670;2022-11-20T03:50:50;-0.40;99.90
19017;DHT22;9641;51.494;6.670;2022-11-20T03:53:17;-0.30;99.90
19017;DHT22;9641;51.494;6.670;2022-11-20T03:55:44;-0.40;99.90
19017;DHT22;9641;51.494;6.670;2022-11-20T03:58:10;-0.40;99.90
19017;DHT22;9641;51.494;6.670;2022-11-20T04:00:39;-0.40;99.90
19017;DHT22;9641;51.494;6.670;2022-11-20T04:03:05;-0.30;99.90
19017;DHT22;9641;51.494;6.670;2022-11-20T04:05:33;-0.40;99.90
19017;DHT22;9641;51.494;6.670;2022-11-20T04:08:01;-0.40;99.90
19017;DHT22;9641;51.494;6.670;2022-11-20T04:10:28;-0.40;99.90
19017;DHT22;9641;51.494;6.670;2022-11-20T04:12:55;-0.30;99.90
19017;DHT22;9641;51.494;6.670;2022-11-20T04:15:21;-0.20;99.90
19017;DHT22;9641;51.494;6.670;2022-11-20T04:17:48;-0.10;99.90
19017;DHT22;9641;51.494;6.670;2022-11-20T04:20:15;-0.10;99.90
19017;DHT22;9641;51.494;6.670;2022-11-20T04:22:42;0.00;99.90
19017;DHT22;9641;51.494;6.670;2022-11-20T04:25:10;0.00;99.90
19017;DHT22;9641;51.494;6.670;2022-11-20T04:27:37;-0.10;99.90
19017;DHT22;9641;51.494;6.670;2022-11-20T04:30:04;-0.10;99.90
19017;DHT22;9641;51.494;6.670;2022-11-20T04:32:31;-0.10;99.90
19017;DHT22;9641;51.494;6.670;2022-11-20T04:34:58;-0.10;99.90
19017;DHT22;9641;51.494;6.670;2022-11-20T04:37:24;-0.10;99.90
19017;DHT22;9641;51.494;6.670;2022-11-20T04:39:51;-0.10;99.90
19017;DHT22;9641;51.494;6.670;2022-11-20T04:42:19;-0.10;99.90
19017;DHT22;9641;51.494;6.670;2022-11-20T04:44:55;0.00;99.90
19017;DHT22;9641;51.494;6.670;2022-11-20T04:47:22;0.00;99.90
19017;DHT22;9641;51.494;6.670;2022-11-20T04:49:49;0.00;99.90
19017;DHT22;9641;51.494;6.670;2022-11-20T04:52:15;-0.10;99.90
19017;DHT22;9641;51.494;6.670;2022-11-20T04:54:42;-0.20;99.90
19017;DHT22;9641;51.494;6.670;2022-11-20T04:57:09;-0.10;99.90
19017;DHT22;9641;51.494;6.670;2022-11-20T04:59:37;0.00;99.90
19017;DHT22;9641;51.494;6.670;2022-11-20T05:02:04;0.10;99.90
19017;DHT22;9641;51.494;6.670;2022-11-20T05:04:30;0.00;99.90
19017;DHT22;9641;51.494;6.670;2022-11-20T05:06:57;0.00;99.90
19017;DHT22;9641;51.494;6.670;2022-11-20T05:09:24;0.10;99.90
19017;DHT22;9641;51.494;6.670;2022-11-20T05:11:51;0.10;99.90
19017;DHT22;9641;51.494;6.670;2022-11-20T05:14:17;-0.10;99.90
19017;DHT22;9641;51.494;6.670;2022-11-20T05:16:46;0.10;99.90
19017;DHT22;9641;51.494;6.670;2022-11-20T05:19:12;0.00;99.90
19017;DHT22;9641;51.494;6.670;2022-11-20T05:21:39;-0.10;99.90
19017;DHT22;9641;51.494;6.670;2022-11-20T05:24:06;-0.20;99.90
19017;DHT22;9641;51.494;6.670;2022-11-20T05:26:33;-0.20;99.90
19017;DHT22;9641;51.494;6.670;2022-11-20T05:29:00;-0.30;99.90
19017;DHT22;9641;51.494;6.670;2022-11-20T05:31:27;-0.30;99.90
19017;DHT22;9641;51.494;6.670;2022-11-20T05:33:56;-0.20;99.90
19017;DHT22;9641;51.494;6.670;2022-11-20T05:36:23;-0.20;99.90
19017;DHT22;9641;51.494;6.670;2022-11-20T05:38:50;-0.20;99.90
19017;DHT22;9641;51.494;6.670;2022-11-20T05:41:18;-0.20;99.90
19017;DHT22;9641;51.494;6.670;2022-11-20T05:43:47;-0.20;99.90
19017;DHT22;9641;51.494;6.670;2022-11-20T05:46:16;-0.20;99.90
19017;DHT22;9641;51.494;6.670;2022-11-20T05:48:44;-0.30;99.90
19017;DHT22;9641;51.494;6.670;2022-11-20T05:51:15;-0.30;99.90
19017;DHT22;9641;51.494;6.670;2022-11-20T05:53:43;-0.40;99.90
19017;DHT22;9641;51.494;6.670;2022-11-20T05:56:12;-0.20;99.90
19017;DHT22;9641;51.494;6.670;2022-11-20T05:58:39;-0.20;99.90
19017;DHT22;9641;51.494;6.670;2022-11-20T06:01:08;-0.20;99.90
19017;DHT22;9641;51.494;6.670;2022-11-20T06:03:36;-0.30;99.90
19017;DHT22;9641;51.494;6.670;2022-11-20T06:06:04;-0.40;99.90
19017;DHT22;9641;51.494;6.670;2022-11-20T06:08:33;-0.40;99.90
19017;DHT22;9641;51.494;6.670;2022-11-20T06:11:04;-0.40;99.90
19017;DHT22;9641;51.494;6.670;2022-11-20T06:13:31;-0.40;99.90
19017;DHT22;9641;51.494;6.670;2022-11-20T06:15:57;-0.40;99.90
19017;DHT22;9641;51.494;6.670;2022-11-20T06:18:25;-0.50;99.90
19017;DHT22;9641;51.494;6.670;2022-11-20T06:20:59;-0.40;99.90
19017;DHT22;9641;51.494;6.670;2022-11-20T06:23:28;-0.50;99.90
19017;DHT22;9641;51.494;6.670;2022-11-20T06:25:57;-0.50;99.90
19017;DHT22;9641;51.494;6.670;2022-11-20T06:28:23;-0.50;99.90
19017;DHT22;9641;51.494;6.670;2022-11-20T06:30:50;-0.50;99.90
19017;DHT22;9641;51.494;6.670;2022-11-20T06:33:17;-0.60;99.90
19017;DHT22;9641;51.494;6.670;2022-11-20T06:35:44;-0.60;99.90
19017;DHT22;9641;51.494;6.670;2022-11-20T06:38:10;-0.60;99.90
19017;DHT22;9641;51.494;6.670;2022-11-20T06:40:40;-0.50;99.90
19017;DHT22;9641;51.494;6.670;2022-11-20T06:43:08;-0.50;99.90
19017;DHT22;9641;51.494;6.670;2022-11-20T06:45:35;-0.60;99.90
19017;DHT22;9641;51.494;6.670;2022-11-20T06:48:03;-0.50;99.90
19017;DHT22;9641;51.494;6.670;2022-11-20T06:50:30;-0.50;99.90
19017;DHT22;9641;51.494;6.670;2022-11-20T06:53:00;-0.40;99.90
19017;DHT22;9641;51.494;6.670;2022-11-20T06:55:27;-0.40;99.90
19017;DHT22;9641;51.494;6.670;2022-11-20T06:57:54;-0.40;99.90
19017;DHT22;9641;51.494;6.670;2022-11-20T07:00:22;-0.40;99.90
19017;DHT22;9641;51.494;6.670;2022-11-20T07:02:49;-0.40;99.90
19017;DHT22;9641;51.494;6.670;2022-11-20T07:05:16;-0.50;99.90
19017;DHT22;9641;51.494;6.670;2022-11-20T07:07:43;-0.50;99.90
19017;DHT22;9641;51.494;6.670;2022-11-20T07:10:10;-0.40;99.90
19017;DHT22;9641;51.494;6.670;2022-11-20T07:12:37;-0.40;99.90
19017;DHT22;9641;51.494;6.670;2022-11-20T07:15:05;-0.30;99.90
19017;DHT22;9641;51.494;6.670;2022-11-20T07:17:33;-0.30;99.90
19017;DHT22;9641;51.494;6.670;2022-11-20T07:20:00;-0.30;99.90
19017;DHT22;9641;51.494;6.670;2022-11-20T07:22:27;-0.20;99.90
19017;DHT22;9641;51.494;6.670;2022-11-20T07:24:54;-0.30;99.90
19017;DHT22;9641;51.494;6.670;2022-11-20T07:27:20;-0.40;99.90
19017;DHT22;9641;51.494;6.670;2022-11-20T07:29:47;-0.50;99.90
19017;DHT22;9641;51.494;6.670;2022-11-20T07:32:14;-0.50;99.90
19017;DHT22;9641;51.494;6.670;2022-11-20T07:34:42;-0.60;99.90
19017;DHT22;9641;51.494;6.670;2022-11-20T07:37:09;-0.60;99.90
19017;DHT22;9641;51.494;6.670;2022-11-20T07:39:36;-0.70;99.90
19017;DHT22;9641;51.494;6.670;2022-11-20T07:42:03;-0.70;99.90
19017;DHT22;9641;51.494;6.670;2022-11-20T07:44:29;-0.70;99.90
19017;DHT22;9641;51.494;6.670;2022-11-20T07:46:56;-0.70;99.90
19017;DHT22;9641;51.494;6.670;2022-11-20T07:49:23;-0.80;99.90
19017;DHT22;9641;51.494;6.670;2022-11-20T07:51:55;-0.80;99.90
19017;DHT22;9641;51.494;6.670;2022-11-20T07:54:23;-0.90;99.90
19017;DHT22;9641;51.494;6.670;2022-11-20T07:56:50;-0.90;99.90
19017;DHT22;9641;51.494;6.670;2022-11-20T07:59:16;-0.60;99.90
19017;DHT22;9641;51.494;6.670;2022-11-20T08:01:43;-0.50;99.90
19017;DHT22;9641;51.494;6.670;2022-11-20T08:04:10;-0.50;99.90
19017;DHT22;9641;51.494;6.670;2022-11-20T08:06:52;-0.50;99.90
19017;DHT22;9641;51.494;6.670;2022-11-20T08:09:21;-0.60;99.90
19017;DHT22;9641;51.494;6.670;2022-11-20T08:11:48;-0.60;99.90
19017;DHT22;9641;51.494;6.670;2022-11-20T08:14:32;-0.60;99.90
19017;DHT22;9641;51.494;6.670;2022-11-20T08:16:59;-0.60;99.90
19017;DHT22;9641;51.494;6.670;2022-11-20T08:19:26;-0.50;99.90
19017;DHT22;9641;51.494;6.670;2022-11-20T08:21:54;-0.50;99.90
19017;DHT22;9641;51.494;6.670;2022-11-20T08:24:22;-0.30;99.90
19017;DHT22;9641;51.494;6.670;2022-11-20T08:26:50;-0.10;99.90
19017;DHT22;9641;51.494;6.670;2022-11-20T08:29:19;0.10;99.90
19017;DHT22;9641;51.494;6.670;2022-11-20T08:31:46;0.20;99.90
19017;DHT22;9641;51.494;6.670;2022-11-20T08:34:13;0.40;99.90
19017;DHT22;9641;51.494;6.670;2022-11-20T08:36:40;0.60;99.90
19017;DHT22;9641;51.494;6.670;2022-11-20T08:39:06;0.70;99.90
19017;DHT22;9641;51.494;6.670;2022-11-20T08:41:35;0.80;99.90
19017;DHT22;9641;51.494;6.670;2022-11-20T08:44:04;0.90;99.90
19017;DHT22;9641;51.494;6.670;2022-11-20T08:46:33;1.00;99.90
19017;DHT22;9641;51.494;6.670;2022-11-20T08:49:01;1.20;99.90
19017;DHT22;9641;51.494;6.670;2022-11-20T08:51:28;1.30;99.90
19017;DHT22;9641;51.494;6.670;2022-11-20T08:53:55;1.30;99.90
19017;DHT22;9641;51.494;6.670;2022-11-20T08:56:22;1.30;99.90
19017;DHT22;9641;51.494;6.670;2022-11-20T08:58:51;1.30;99.90
19017;DHT22;9641;51.494;6.670;2022-11-20T09:01:18;1.50;99.90
19017;DHT22;9641;51.494;6.670;2022-11-20T09:03:45;1.50;99.90
19017;DHT22;9641;51.494;6.670;2022-11-20T09:06:13;1.70;99.90
19017;DHT22;9641;51.494;6.670;2022-11-20T09:08:40;1.70;99.90
19017;DHT22;9641;51.494;6.670;2022-11-20T09:11:07;1.80;99.90
19017;DHT22;9641;51.494;6.670;2022-11-20T09:13:35;2.00;99.90
19017;DHT22;9641;51.494;6.670;2022-11-20T09:16:05;1.90;99.90
19017;DHT22;9641;51.494;6.670;2022-11-20T09:18:34;1.90;99.90
19017;DHT22;9641;51.494;6.670;2022-11-20T09:21:04;2.00;99.90
19017;DHT22;9641;51.494;6.670;2022-11-20T09:23:32;2.00;99.90
19017;DHT22;9641;51.494;6.670;2022-11-20T09:26:02;2.00;99.90
19017;DHT22;9641;51.494;6.670;2022-11-20T09:28:30;1.90;99.90
19017;DHT22;9641;51.494;6.670;2022-11-20T09:30:57;1.80;99.90
19017;DHT22;9641;51.494;6.670;2022-11-20T09:33:25;1.80;99.90
19017;DHT22;9641;51.494;6.670;2022-11-20T09:35:52;1.90;99.90
19017;DHT22;9641;51.494;6.670;2022-11-20T09:38:19;2.00;99.90
19017;DHT22;9641;51.494;6.670;2022-11-20T09:40:53;2.00;99.90
19017;DHT22;9641;51.494;6.670;2022-11-20T09:43:29;1.90;99.90
19017;DHT22;9641;51.494;6.670;2022-11-20T09:46:06;2.10;99.90
19017;DHT22;9641;51.494;6.670;2022-11-20T09:49:07;2.30;99.90
19017;DHT22;9641;51.494;6.670;2022-11-20T09:51:47;2.50;99.90
19017;DHT22;9641;51.494;6.670;2022-11-20T09:54:21;2.80;99.90
19017;DHT22;9641;51.494;6.670;2022-11-20T09:56:50;3.30;99.90
19017;DHT22;9641;51.494;6.670;2022-11-20T09:59:29;3.70;99.90
19017;DHT22;9641;51.494;6.670;2022-11-20T10:01:59;4.10;47.70
19017;DHT22;9641;51.494;6.670;2022-11-20T10:04:30;4.40;1.00
19017;DHT22;9641;51.494;6.670;2022-11-20T10:07:02;4.50;1.00
19017;DHT22;9641;51.494;6.670;2022-11-20T10:09:35;4.60;1.00
19017;DHT22;9641;51.494;6.670;2022-11-20T10:12:12;4.70;1.00
19017;DHT22;9641;51.494;6.670;2022-11-20T10:14:53;4.80;1.00
19017;DHT22;9641;51.494;6.670;2022-11-20T10:17:30;4.80;1.00
19017;DHT22;9641;51.494;6.670;2022-11-20T10:20:14;4.90;1.00
19017;DHT22;9641;51.494;6.670;2022-11-20T10:22:56;5.00;1.00
19017;DHT22;9641;51.494;6.670;2022-11-20T10:25:26;5.00;1.00
19017;DHT22;9641;51.494;6.670;2022-11-20T10:28:19;5.20;1.00
19017;DHT22;9641;51.494;6.670;2022-11-20T10:31:00;5.40;1.00
19017;DHT22;9641;51.494;6.670;2022-11-20T10:33:29;5.60;99.90
19017;DHT22;9641;51.494;6.670;2022-11-20T10:36:05;5.70;99.90
19017;DHT22;9641;51.494;6.670;2022-11-20T10:38:38;5.90;1.00
19017;DHT22;9641;51.494;6.670;2022-11-20T10:41:07;6.10;1.00
19017;DHT22;9641;51.494;6.670;2022-11-20T10:43:57;6.30;99.90
19017;DHT22;9641;51.494;6.670;2022-11-20T10:46:32;6.50;1.00
19017;DHT22;9641;51.494;6.670;2022-11-20T10:48:59;6.70;1.00
19017;DHT22;9641;51.494;6.670;2022-11-20T10:51:36;6.60;1.00
19017;DHT22;9641;51.494;6.670;2022-11-20T10:54:12;6.40;1.00
19017;DHT22;9641;51.494;6.670;2022-11-20T10:56:47;6.30;1.00
19017;DHT22;9641;51.494;6.670;2022-11-20T10:59:35;6.20;1.00
19017;DHT22;9641;51.494;6.670;2022-11-20T11:02:15;6.20;99.90
19017;DHT22;9641;51.494;6.670;2022-11-20T11:04:44;6.20;99.90
19017;DHT22;9641;51.494;6.670;2022-11-20T11:07:17;6.10;99.90
19017;DHT22;9641;51.494;6.670;2022-11-20T11:09:48;6.00;99.90
19017;DHT22;9641;51.494;6.670;2022-11-20T11:12:16;5.90;1.00
19017;DHT22;9641;51.494;6.670;2022-11-20T11:14:48;5.90;1.00
19017;DHT22;9641;51.494;6.670;2022-11-20T11:17:21;5.90;1.00
19017;DHT22;9641;51.494;6.670;2022-11-20T11:20:03;5.90;1.00
19017;DHT22;9641;51.494;6.670;2022-11-20T11:22:43;5.80;1.00
19017;DHT22;9641;51.494;6.670;2022-11-20T11:25:23;5.60;1.00
19017;DHT22;9641;51.494;6.670;2022-11-20T11:27:52;5.40;1.00
19017;DHT22;9641;51.494;6.670;2022-11-20T11:30:20;5.30;1.00
19017;DHT22;9641;51.494;6.670;2022-11-20T11:32:47;5.30;1.00
19017;DHT22;9641;51.494;6.670;2022-11-20T11:35:23;5.30;1.00
19017;DHT22;9641;51.494;6.670;2022-11-20T11:37:53;5.20;1.00
19017;DHT22;9641;51.494;6.670;2022-11-20T11:40:22;5.10;1.00
19017;DHT22;9641;51.494;6.670;2022-11-20T11:42:58;5.10;1.00
19017;DHT22;9641;51.494;6.670;2022-11-20T11:45:26;5.00;1.00
19017;DHT22;9641;51.494;6.670;2022-11-20T11:47:53;5.10;1.00
19017;DHT22;9641;51.494;6.670;2022-11-20T11:50:22;5.00;1.00
19017;DHT22;9641;51.494;6.670;2022-11-20T11:53:03;5.00;1.00
19017;DHT22;9641;51.494;6.670;2022-11-20T11:55:35;5.00;5.20
19017;DHT22;9641;51.494;6.670;2022-11-20T11:58:27;5.00;1.00
19017;DHT22;9641;51.494;6.670;2022-11-20T12:00:58;5.00;6.00
19017;DHT22;9641;51.494;6.670;2022-11-20T12:03:32;5.10;1.00
19017;DHT22;9641;51.494;6.670;2022-11-20T12:06:09;5.10;1.00
19017;DHT22;9641;51.494;6.670;2022-11-20T12:08:44;5.20;1.00
19017;DHT22;9641;51.494;6.670;2022-11-20T12:11:14;5.20;1.00
19017;DHT22;9641;51.494;6.670;2022-11-20T12:13:48;5.20;1.00
19017;DHT22;9641;51.494;6.670;2022-11-20T12:16:19;5.30;1.00
19017;DHT22;9641;51.494;6.670;2022-11-20T12:18:48;5.20;1.00
19017;DHT22;9641;51.494;6.670;2022-11-20T12:21:23;5.10;1.00
19017;DHT22;9641;51.494;6.670;2022-11-20T12:24:05;5.10;11.30
19017;DHT22;9641;51.494;6.670;2022-11-20T12:26:43;5.10;8.90
19017;DHT22;9641;51.494;6.670;2022-11-20T12:29:18;5.20;1.00
19017;DHT22;9641;51.494;6.670;2022-11-20T12:32:00;5.40;1.00
19017;DHT22;9641;51.494;6.670;2022-11-20T12:34:40;5.40;1.00
19017;DHT22;9641;51.494;6.670;2022-11-20T12:37:18;5.50;1.00
19017;DHT22;9641;51.494;6.670;2022-11-20T12:39:49;5.50;1.00
19017;DHT22;9641;51.494;6.670;2022-11-20T12:42:38;5.60;1.00
19017;DHT22;9641;51.494;6.670;2022-11-20T12:45:46;5.70;1.00
19017;DHT22;9641;51.494;6.670;2022-11-20T12:48:30;5.70;1.00
19017;DHT22;9641;51.494;6.670;2022-11-20T12:51:15;5.90;1.00
19017;DHT22;9641;51.494;6.670;2022-11-20T12:53:52;5.90;1.00
19017;DHT22;9641;51.494;6.670;2022-11-20T12:56:34;5.90;1.00
19017;DHT22;9641;51.494;6.670;2022-11-20T12:59:19;5.90;1.00
19017;DHT22;9641;51.494;6.670;2022-11-20T13:01:52;5.80;1.00
19017;DHT22;9641;51.494;6.670;2022-11-20T13:04:34;5.80;1.00
19017;DHT22;9641;51.494;6.670;2022-11-20T13:07:10;5.80;1.00
19017;DHT22;9641;51.494;6.670;2022-11-20T13:09:43;5.80;1.00
19017;DHT22;9641;51.494;6.670;2022-11-20T13:12:28;5.80;1.00
19017;DHT22;9641;51.494;6.670;2022-11-20T13:15:00;5.70;1.00
19017;DHT22;9641;51.494;6.670;2022-11-20T13:17:33;5.70;1.00
19017;DHT22;9641;51.494;6.670;2022-11-20T13:20:02;5.60;1.00
19017;DHT22;9641;51.494;6.670;2022-11-20T13:22:43;5.60;1.00
19017;DHT22;9641;51.494;6.670;2022-11-20T13:25:23;5.50;45.70
19017;DHT22;9641;51.494;6.670;2022-11-20T13:27:52;5.40;81.40
19017;DHT22;9641;51.494;6.670;2022-11-20T13:30:21;5.40;92.90
19017;DHT22;9641;51.494;6.670;2022-11-20T13:32:51;5.40;99.40
19017;DHT22;9641;51.494;6.670;2022-11-20T13:35:27;5.40;99.90
19017;DHT22;9641;51.494;6.670;2022-11-20T13:38:04;5.30;99.90
19017;DHT22;9641;51.494;6.670;2022-11-20T13:40:31;5.20;99.90
19017;DHT22;9641;51.494;6.670;2022-11-20T13:43:20;5.20;99.90
19017;DHT22;9641;51.494;6.670;2022-11-20T13:45:58;5.20;99.90
19017;DHT22;9641;51.494;6.670;2022-11-20T13:48:28;5.10;99.90
19017;DHT22;9641;51.494;6.670;2022-11-20T13:51:09;5.10;99.90
19017;DHT22;9641;51.494;6.670;2022-11-20T13:54:04;4.90;99.90
19017;DHT22;9641;51.494;6.670;2022-11-20T13:56:47;4.90;99.90
19017;DHT22;9641;51.494;6.670;2022-11-20T13:59:31;4.90;99.90
19017;DHT22;9641;51.494;6.670;2022-11-20T14:02:00;4.90;99.90
19017;DHT22;9641;51.494;6.670;2022-11-20T14:04:31;5.00;99.90
19017;DHT22;9641;51.494;6.670;2022-11-20T14:06:59;5.00;99.90
19017;DHT22;9641;51.494;6.670;2022-11-20T14:09:28;5.00;99.90
19017;DHT22;9641;51.494;6.670;2022-11-20T14:11:55;5.00;99.90
19017;DHT22;9641;51.494;6.670;2022-11-20T14:14:25;5.00;99.90
19017;DHT22;9641;51.494;6.670;2022-11-20T14:16:53;5.00;99.90
19017;DHT22;9641;51.494;6.670;2022-11-20T14:19:31;5.00;99.90
19017;DHT22;9641;51.494;6.670;2022-11-20T14:22:16;5.10;99.90
19017;DHT22;9641;51.494;6.670;2022-11-20T14:24:44;5.10;99.90
19017;DHT22;9641;51.494;6.670;2022-11-20T14:27:17;5.20;99.90
19017;DHT22;9641;51.494;6.670;2022-11-20T14:29:47;5.20;99.90
19017;DHT22;9641;51.494;6.670;2022-11-20T14:32:16;5.20;99.90
19017;DHT22;9641;51.494;6.670;2022-11-20T14:34:45;5.20;99.90
19017;DHT22;9641;51.494;6.670;2022-11-20T14:37:19;5.10;99.90
19017;DHT22;9641;51.494;6.670;2022-11-20T14:39:51;5.10;99.90
19017;DHT22;9641;51.494;6.670;2022-11-20T14:42:20;5.00;99.90
19017;DHT22;9641;51.494;6.670;2022-11-20T14:44:50;4.90;99.90
19017;DHT22;9641;51.494;6.670;2022-11-20T14:47:20;4.90;99.90
19017;DHT22;9641;51.494;6.670;2022-11-20T14:49:48;4.80;99.90
19017;DHT22;9641;51.494;6.670;2022-11-20T14:52:18;4.90;99.90
19017;DHT22;9641;51.494;6.670;2022-11-20T14:54:47;4.80;99.90
19017;DHT22;9641;51.494;6.670;2022-11-20T14:57:23;4.80;99.90
19017;DHT22;9641;51.494;6.670;2022-11-20T15:00:04;4.90;99.90
19017;DHT22;9641;51.494;6.670;2022-11-20T15:02:31;4.90;99.90
19017;DHT22;9641;51.494;6.670;2022-11-20T15:05:02;4.90;99.90
19017;DHT22;9641;51.494;6.670;2022-11-20T15:07:32;4.90;99.90
19017;DHT22;9641;51.494;6.670;2022-11-20T15:10:01;4.80;99.90
19017;DHT22;9641;51.494;6.670;2022-11-20T15:12:29;4.80;99.90
19017;DHT22;9641;51.494;6.670;2022-11-20T15:15:00;4.90;99.90
19017;DHT22;9641;51.494;6.670;2022-11-20T15:17:32;4.90;99.90
19017;DHT22;9641;51.494;6.670;2022-11-20T15:19:59;4.90;99.90
19017;DHT22;9641;51.494;6.670;2022-11-20T15:22:28;4.90;99.90
19017;DHT22;9641;51.494;6.670;2022-11-20T15:24:55;4.80;99.90
19017;DHT22;9641;51.494;6.670;2022-11-20T15:27:22;4.80;99.90
19017;DHT22;9641;51.494;6.670;2022-11-20T15:29:51;4.80;99.90
19017;DHT22;9641;51.494;6.670;2022-11-20T15:32:20;4.80;99.90
19017;DHT22;9641;51.494;6.670;2022-11-20T15:34:47;4.80;99.90
19017;DHT22;9641;51.494;6.670;2022-11-20T15:37:13;4.80;99.90
19017;DHT22;9641;51.494;6.670;2022-11-20T15:39:40;4.80;99.90
19017;DHT22;9641;51.494;6.670;2022-11-20T15:42:07;4.80;99.90
19017;DHT22;9641;51.494;6.670;2022-11-20T15:44:34;4.90;99.90
19017;DHT22;9641;51.494;6.670;2022-11-20T15:47:01;4.90;99.90
19017;DHT22;9641;51.494;6.670;2022-11-20T15:49:29;4.90;99.90
19017;DHT22;9641;51.494;6.670;2022-11-20T15:51:56;4.90;99.90
19017;DHT22;9641;51.494;6.670;2022-11-20T15:54:23;4.80;99.90
19017;DHT22;9641;51.494;6.670;2022-11-20T15:56:50;4.80;99.90
19017;DHT22;9641;51.494;6.670;2022-11-20T15:59:18;4.80;99.90
19017;DHT22;9641;51.494;6.670;2022-11-20T16:01:45;4.80;99.90
19017;DHT22;9641;51.494;6.670;2022-11-20T16:04:13;4.80;99.90
19017;DHT22;9641;51.494;6.670;2022-11-20T16:06:41;4.70;99.90
19017;DHT22;9641;51.494;6.670;2022-11-20T16:09:08;4.70;99.90
19017;DHT22;9641;51.494;6.670;2022-11-20T16:11:35;4.70;99.90
19017;DHT22;9641;51.494;6.670;2022-11-20T16:14:03;4.70;99.90
19017;DHT22;9641;51.494;6.670;2022-11-20T16:16:47;4.70;99.90